This is the latest recevied weather packets stored in our database for station/object KJ4HF. If no packets are shown the sender has not sent any weather packets the latest 10 day(s).
| Time | Temp. | Humidity | Pressure | Rain* | Wind** | Luminosity | Snow |
|---|---|---|---|---|---|---|---|
| 1777489543 | 23.89° C | 69% | 1009.6 hPa | 0 mm | - | 962 W/m² | - |
| 1777489257 | 23.89° C | 68% | 1009.8 hPa | 0 mm | - | 624 W/m² | - |
| 1777488946 | 24.44° C | 66% | 1009.8 hPa | 0 mm | - | 930 W/m² | - |
| 1777487744 | 23.89° C | 67% | 1010.5 hPa | 0 mm | - | 944 W/m² | - |
| 1777486560 | 22.78° C | 72% | 1010.8 hPa | 0 mm | - | 357 W/m² | - |
| 1777485649 | 23.33° C | 68% | 1011 hPa | 0 mm | - | 378 W/m² | - |
| 1777483866 | 21.11° C | 76% | 1011.4 hPa | 0 mm | - | 457 W/m² | - |
| 1777482949 | 20.56° C | 78% | 1011.5 hPa | 0 mm | - | 341 W/m² | - |
| 1777481148 | 20° C | 80% | 1012.2 hPa | 0 mm | - | 304 W/m² | - |
| 1777480246 | 19.44° C | 83% | 1012.6 hPa | 0 mm | - | 253 W/m² | - |
| 1777479348 | 18.89° C | 86% | 1012.7 hPa | 0 mm | - | 202 W/m² | - |
| 1777478143 | 17.78° C | 90% | 1012.9 hPa | 0 mm | - | 118 W/m² | - |
| 1777477548 | 17.22° C | 90% | 1012.9 hPa | 0 mm | - | 155 W/m² | - |
| 1777477247 | 17.22° C | 91% | 1012.9 hPa | 0 mm | - | 167 W/m² | - |
| 1777476942 | 17.22° C | 91% | 1012.9 hPa | 0 mm | - | 128 W/m² | - |
| 1777476651 | 17.22° C | 92% | 1012.9 hPa | 0 mm | - | 109 W/m² | - |
| 1777476343 | 16.67° C | 91% | 1012.9 hPa | 0 mm | - | 125 W/m² | - |
| 1777474242 | 16.67° C | 92% | 1013.1 hPa | 0 mm | - | 130 W/m² | - |
| 1777472444 | 16.11° C | 92% | 1012.8 hPa | 0 mm | - | 67 W/m² | - |
| 1777472150 | 16.11° C | 92% | 1012.8 hPa | 0 mm | - | 79 W/m² | - |
| 1777470042 | 16.11° C | 93% | 1013.7 hPa | 0 mm | - | 83 W/m² | - |
| 1777468244 | 15.56° C | 94% | 1014.3 hPa | 0 mm | - | 77 W/m² | - |
| 1777467652 | 15.56° C | 94% | 1014.2 hPa | 0 mm | - | 86 W/m² | - |
| 1777467048 | 15.56° C | 94% | 1013.9 hPa | 0 mm | - | 88 W/m² | - |
| 1777465543 | 15° C | 95% | 1013.6 hPa | 0 mm | - | 67 W/m² | - |
* Rain latest hour (hover to see other rain measurements)
** Current wind speed in m/s (hover to see current wind gust speed)